createdAt,value
2018-02-02T00:01:04.880Z,9.07
2018-02-02T00:03:32.019Z,9.00
2018-02-02T00:05:58.408Z,9.10
2018-02-02T00:08:24.811Z,10.23
2018-02-02T00:10:51.918Z,8.57
2018-02-02T00:13:18.320Z,9.57
2018-02-02T00:15:44.703Z,9.50
2018-02-02T00:18:11.082Z,8.67
2018-02-02T00:20:37.466Z,9.17
2018-02-02T00:23:04.590Z,9.00
2018-02-02T00:25:30.953Z,10.00
2018-02-02T00:27:58.057Z,9.60
2018-02-02T00:30:24.452Z,9.00
2018-02-02T00:32:50.850Z,9.80
2018-02-02T00:35:17.986Z,10.87
2018-02-02T00:37:44.362Z,9.20
2018-02-02T00:40:10.766Z,9.90
2018-02-02T00:42:37.205Z,10.37
2018-02-02T00:45:04.357Z,9.47
2018-02-02T00:47:31.498Z,10.57
2018-02-02T00:49:57.878Z,10.30
2018-02-02T00:52:24.275Z,8.97
2018-02-02T00:54:51.397Z,9.80
2018-02-02T00:57:17.776Z,9.87
2018-02-02T00:59:44.234Z,9.57
2018-02-02T01:02:10.663Z,10.00
2018-02-02T01:04:37.033Z,10.23
2018-02-02T01:07:03.408Z,10.23
2018-02-02T01:09:29.801Z,10.57
2018-02-02T01:11:56.206Z,10.17
2018-02-02T01:14:22.579Z,12.43
2018-02-02T01:16:49.710Z,10.57
2018-02-02T01:19:16.098Z,11.30
2018-02-02T01:21:42.468Z,10.80
2018-02-02T01:24:10.335Z,10.50
2018-02-02T01:26:36.715Z,11.00
2018-02-02T01:29:03.107Z,10.90
2018-02-02T01:31:30.348Z,10.47
2018-02-02T01:33:56.725Z,19.40
2018-02-02T01:36:23.109Z,19.87
2018-02-02T01:38:49.507Z,14.60
2018-02-02T01:41:15.907Z,10.60
2018-02-02T01:43:43.048Z,12.00
2018-02-02T01:46:10.238Z,11.00
2018-02-02T01:48:36.699Z,10.23
2018-02-02T01:51:03.098Z,10.47
2018-02-02T01:53:29.468Z,10.33
2018-02-02T01:55:55.849Z,10.40
2018-02-02T01:58:22.238Z,9.33
2018-02-02T02:00:50.117Z,11.07
2018-02-02T02:03:17.231Z,11.30
2018-02-02T02:05:43.595Z,10.90
2018-02-02T02:08:09.994Z,10.20
2018-02-02T02:10:36.366Z,9.00
2018-02-02T02:13:03.517Z,11.40
2018-02-02T02:15:30.633Z,10.60
2018-02-02T02:17:57.028Z,11.77
2018-02-02T02:20:23.459Z,11.07
2018-02-02T02:22:49.872Z,10.10
2018-02-02T02:25:16.970Z,9.70
2018-02-02T02:27:43.361Z,10.30
2018-02-02T02:30:10.485Z,9.93
2018-02-02T02:32:36.850Z,11.20
2018-02-02T02:35:03.246Z,10.97
2018-02-02T02:37:29.687Z,9.97
2018-02-02T02:39:56.870Z,11.47
2018-02-02T02:42:23.265Z,9.63
2018-02-02T02:44:49.641Z,11.23
2018-02-02T02:47:16.054Z,10.07
2018-02-02T02:49:42.451Z,9.40
2018-02-02T02:52:10.298Z,10.87
2018-02-02T02:54:36.755Z,10.00
2018-02-02T02:57:03.155Z,10.40
2018-02-02T02:59:29.534Z,10.23
2018-02-02T03:01:56.659Z,10.07
2018-02-02T03:04:23.050Z,10.23
2018-02-02T03:06:49.413Z,9.70
2018-02-02T03:09:15.820Z,10.33
2018-02-02T03:11:42.229Z,10.10
2018-02-02T03:14:08.658Z,10.50
2018-02-02T03:16:35.781Z,9.60
2018-02-02T03:19:02.210Z,10.90
2018-02-02T03:21:29.351Z,9.90
2018-02-02T03:23:55.744Z,9.90
2018-02-02T03:26:22.105Z,9.83
2018-02-02T03:28:48.511Z,10.13
2018-02-02T03:31:14.882Z,10.30
2018-02-02T03:33:41.243Z,9.80
2018-02-02T03:36:08.353Z,10.33
2018-02-02T03:38:34.750Z,9.70
2018-02-02T03:41:01.157Z,9.20
2018-02-02T03:43:28.310Z,10.10
2018-02-02T03:45:55.442Z,8.70
2018-02-02T03:48:22.570Z,9.53
2018-02-02T03:50:49.730Z,9.67
2018-02-02T03:53:16.116Z,8.90
2018-02-02T03:55:42.718Z,8.20
2018-02-02T03:58:09.124Z,7.67
2018-02-02T04:00:35.522Z,9.30
2018-02-02T04:03:01.916Z,9.07
2018-02-02T04:05:29.039Z,9.40
2018-02-02T04:07:55.419Z,10.50
2018-02-02T04:10:21.802Z,10.80
2018-02-02T04:12:48.187Z,11.33
2018-02-02T04:15:14.842Z,8.87
2018-02-02T04:17:41.234Z,11.43
2018-02-02T04:20:08.361Z,10.77
2018-02-02T04:22:34.749Z,10.23
2018-02-02T04:25:01.191Z,10.00
2018-02-02T04:27:27.589Z,10.03
2018-02-02T04:29:53.996Z,11.40
2018-02-02T04:32:21.134Z,11.00
2018-02-02T04:34:47.530Z,11.93
2018-02-02T04:37:13.942Z,10.93
2018-02-02T04:39:40.373Z,9.87
2018-02-02T04:42:06.762Z,11.77
2018-02-02T04:44:33.156Z,27.87
2018-02-02T04:46:59.558Z,10.20
2018-02-02T04:49:26.026Z,10.03
2018-02-02T04:51:52.401Z,10.80
2018-02-02T04:54:19.518Z,9.70
2018-02-02T04:56:45.910Z,9.10
2018-02-02T04:59:12.346Z,8.93
2018-02-02T05:01:38.707Z,10.27
2018-02-02T05:04:05.076Z,9.93
2018-02-02T05:06:32.206Z,9.53
2018-02-02T05:08:58.575Z,12.07
2018-02-02T05:11:25.734Z,11.63
2018-02-02T05:13:52.094Z,14.20
2018-02-02T05:16:18.475Z,13.37
2018-02-02T05:18:45.648Z,15.70
2018-02-02T05:21:12.102Z,14.03
2018-02-02T05:23:38.579Z,13.30
2018-02-02T05:26:04.975Z,11.80
2018-02-02T05:28:31.375Z,12.67
2018-02-02T05:30:57.848Z,13.83
2018-02-02T05:33:24.239Z,19.27
2018-02-02T05:35:50.614Z,36.60
2018-02-02T05:38:16.969Z,37.67
2018-02-02T05:40:43.362Z,20.13
2018-02-02T05:43:09.806Z,12.50
2018-02-02T05:45:36.198Z,10.70
2018-02-02T05:48:02.601Z,10.57
2018-02-02T05:50:28.992Z,11.30
2018-02-02T05:52:55.397Z,11.30
2018-02-02T05:55:21.836Z,12.67
2018-02-02T05:57:48.230Z,12.30
2018-02-02T06:00:14.615Z,12.20
2018-02-02T06:02:40.998Z,10.10
2018-02-02T06:05:07.397Z,26.80
2018-02-02T06:07:33.844Z,11.47
2018-02-02T06:10:00.259Z,10.30
2018-02-02T06:12:26.623Z,12.70
2018-02-02T06:14:53.042Z,11.80
2018-02-02T06:17:19.455Z,10.50
2018-02-02T06:19:45.845Z,11.63
2018-02-02T06:22:12.979Z,10.80
2018-02-02T06:24:40.118Z,11.87
2018-02-02T06:27:06.499Z,14.20
2018-02-02T06:29:32.919Z,11.30
2018-02-02T06:31:59.286Z,11.17
2018-02-02T06:34:25.654Z,12.90
2018-02-02T06:36:58.860Z,11.17
2018-02-02T06:39:25.993Z,12.20
2018-02-02T06:41:53.128Z,13.50
2018-02-02T06:44:19.550Z,12.23
2018-02-02T06:46:45.931Z,12.73
2018-02-02T06:49:12.317Z,11.17
2018-02-02T06:51:38.722Z,12.10
2018-02-02T06:54:05.089Z,39.93
2018-02-02T06:56:31.491Z,12.50
2018-02-02T06:58:57.925Z,16.00
2018-02-02T07:01:24.326Z,11.80
2018-02-02T07:03:50.702Z,14.10
2018-02-02T07:06:17.110Z,11.97
2018-02-02T07:08:43.586Z,10.83
2018-02-02T07:11:10.041Z,10.70
2018-02-02T07:13:36.410Z,10.67
2018-02-02T07:16:02.922Z,10.50
2018-02-02T07:18:30.037Z,10.13
2018-02-02T07:20:56.409Z,12.03
2018-02-02T07:23:22.811Z,12.30
2018-02-02T07:25:49.948Z,10.77
2018-02-02T07:28:16.359Z,10.73
2018-02-02T07:30:42.742Z,10.67
2018-02-02T07:33:09.866Z,11.40
2018-02-02T07:35:36.235Z,10.70
2018-02-02T07:38:02.651Z,12.23
2018-02-02T07:40:29.832Z,18.97
2018-02-02T07:42:56.211Z,17.53
2018-02-02T07:45:23.351Z,13.97
2018-02-02T07:47:49.734Z,13.27
2018-02-02T07:50:16.134Z,14.47
2018-02-02T07:52:43.278Z,13.90
2018-02-02T07:55:10.394Z,14.30
2018-02-02T07:57:36.800Z,14.00
2018-02-02T08:00:03.287Z,15.17
2018-02-02T08:02:29.679Z,13.80
2018-02-02T08:04:56.086Z,12.97
2018-02-02T08:07:22.479Z,13.63
2018-02-02T08:09:49.665Z,13.27
2018-02-02T08:12:16.072Z,12.80
2018-02-02T08:14:43.194Z,13.00
2018-02-02T08:17:09.585Z,12.80
2018-02-02T08:19:35.976Z,11.50
2018-02-02T08:22:03.098Z,13.40
2018-02-02T08:24:29.457Z,11.77
2018-02-02T08:26:55.858Z,16.70
2018-02-02T08:29:22.268Z,17.40
2018-02-02T08:31:48.643Z,21.93
2018-02-02T08:34:15.030Z,18.23
2018-02-02T08:36:41.415Z,13.03
2018-02-02T08:39:07.803Z,12.53
2018-02-02T08:41:34.186Z,12.20
2018-02-02T08:44:01.310Z,11.80
2018-02-02T08:46:27.693Z,63.07
2018-02-02T08:48:54.095Z,71.70
2018-02-02T08:51:20.482Z,23.07
2018-02-02T08:53:46.891Z,18.30
2018-02-02T08:56:13.311Z,15.10
2018-02-02T08:58:39.922Z,11.70
2018-02-02T09:01:12.386Z,9.77
2018-02-02T09:03:38.762Z,9.37
2018-02-02T09:06:05.196Z,11.80
2018-02-02T09:08:31.553Z,8.03
2018-02-02T09:10:57.976Z,8.30
2018-02-02T09:13:24.379Z,8.40
2018-02-02T09:15:51.487Z,8.53
2018-02-02T09:18:17.888Z,9.00
2018-02-02T09:20:44.305Z,8.50
2018-02-02T09:23:10.727Z,6.87
2018-02-02T09:25:37.849Z,6.93
2018-02-02T09:28:04.279Z,7.80
2018-02-02T09:30:30.666Z,6.67
2018-02-02T09:32:57.055Z,7.47
2018-02-02T09:35:23.460Z,12.33
2018-02-02T09:37:49.852Z,6.10
2018-02-02T09:40:16.235Z,7.00
2018-02-02T09:42:42.644Z,5.87
2018-02-02T09:45:09.100Z,6.67
2018-02-02T09:47:35.465Z,5.70
2018-02-02T09:50:01.851Z,5.60
2018-02-02T09:52:28.239Z,6.00
2018-02-02T09:54:55.355Z,6.23
2018-02-02T09:57:21.736Z,5.80
2018-02-02T09:59:48.253Z,5.30
2018-02-02T10:02:14.683Z,8.60
2018-02-02T10:04:41.077Z,5.13
2018-02-02T10:07:07.452Z,5.30
2018-02-02T10:09:34.558Z,5.30
2018-02-02T10:12:00.954Z,5.37
2018-02-02T10:14:27.351Z,9.70
2018-02-02T10:16:54.482Z,7.10
2018-02-02T10:19:20.889Z,9.53
2018-02-02T10:21:47.312Z,7.07
2018-02-02T10:24:13.772Z,5.10
2018-02-02T10:26:41.950Z,6.70
2018-02-02T10:29:09.104Z,5.10
2018-02-02T10:31:35.513Z,7.60
2018-02-02T10:34:01.964Z,5.20
2018-02-02T10:36:29.117Z,6.00
2018-02-02T10:38:56.268Z,5.40
2018-02-02T10:41:22.712Z,5.30
2018-02-02T10:43:49.850Z,5.30
2018-02-02T10:46:16.240Z,4.73
2018-02-02T10:48:42.660Z,6.20
2018-02-02T10:51:09.081Z,5.23
2018-02-02T10:53:35.526Z,4.43
2018-02-02T10:56:01.897Z,5.97
2018-02-02T10:58:28.302Z,5.70
2018-02-02T11:01:00.711Z,4.93
2018-02-02T11:03:30.841Z,5.43
2018-02-02T11:05:58.726Z,5.87
2018-02-02T11:08:25.118Z,5.70
2018-02-02T11:10:51.491Z,4.70
2018-02-02T11:13:18.644Z,5.33
2018-02-02T11:15:45.047Z,6.50
2018-02-02T11:18:11.428Z,5.67
2018-02-02T11:20:37.798Z,5.83
2018-02-02T11:23:04.178Z,12.93
2018-02-02T11:25:31.327Z,14.20
2018-02-02T11:27:57.730Z,7.40
2018-02-02T11:30:25.626Z,9.63
2018-02-02T11:32:52.762Z,6.53
2018-02-02T11:35:19.904Z,5.33
2018-02-02T11:37:47.043Z,4.47
2018-02-02T11:40:13.462Z,4.53
2018-02-02T11:42:39.853Z,5.73
2018-02-02T11:45:06.270Z,5.70
2018-02-02T11:47:33.430Z,7.80
2018-02-02T11:49:59.863Z,4.30
2018-02-02T11:52:26.261Z,5.10
2018-02-02T11:54:53.371Z,6.40
2018-02-02T11:57:20.494Z,18.87
2018-02-02T11:59:46.894Z,7.90
2018-02-02T12:02:14.215Z,5.60
2018-02-02T12:04:42.078Z,4.70
2018-02-02T12:07:08.505Z,4.03
2018-02-02T12:09:35.106Z,5.50
2018-02-02T12:12:02.222Z,3.40
2018-02-02T12:14:28.625Z,4.27
2018-02-02T12:16:55.074Z,4.00
2018-02-02T12:19:21.497Z,3.30
2018-02-02T12:22:06.842Z,4.13
2018-02-02T12:24:39.322Z,4.27
2018-02-02T12:27:10.567Z,5.50
2018-02-02T12:29:47.172Z,4.43
2018-02-02T12:32:28.487Z,4.40
2018-02-02T12:34:55.654Z,3.70
2018-02-02T12:37:22.076Z,3.70
2018-02-02T12:39:49.249Z,3.40
2018-02-02T12:42:15.684Z,3.70
2018-02-02T12:44:42.081Z,3.40
2018-02-02T12:47:09.268Z,3.77
2018-02-02T12:49:35.684Z,4.03
2018-02-02T12:52:02.076Z,4.90
2018-02-02T12:54:28.477Z,4.00
2018-02-02T12:56:54.863Z,3.83
2018-02-02T12:59:22.001Z,3.23
2018-02-02T13:01:48.392Z,3.63
2018-02-02T13:04:14.788Z,4.80
2018-02-02T13:06:41.206Z,4.37
2018-02-02T13:09:08.392Z,4.23
2018-02-02T13:11:34.827Z,6.10
2018-02-02T13:14:01.222Z,3.37
2018-02-02T13:16:28.337Z,5.50
2018-02-02T13:18:54.726Z,3.63
2018-02-02T13:21:21.199Z,3.87
2018-02-02T13:23:47.566Z,3.73
2018-02-02T13:26:14.678Z,3.53
2018-02-02T13:28:41.378Z,3.80
2018-02-02T13:31:07.755Z,3.33
2018-02-02T13:33:34.167Z,3.40
2018-02-02T13:36:00.578Z,3.67
2018-02-02T13:38:26.950Z,3.77
2018-02-02T13:40:53.362Z,3.23
2018-02-02T13:43:19.779Z,6.17
2018-02-02T13:45:46.173Z,3.37
2018-02-02T13:48:14.050Z,3.90
2018-02-02T13:50:41.183Z,4.70
2018-02-02T13:53:09.058Z,5.77
2018-02-02T13:55:36.227Z,2.60
2018-02-02T13:58:03.403Z,3.43
2018-02-02T14:00:29.818Z,3.60
2018-02-02T14:02:56.219Z,3.37
2018-02-02T14:05:22.612Z,3.43
2018-02-02T14:07:48.992Z,3.50
2018-02-02T14:10:16.109Z,3.20
2018-02-02T14:12:42.485Z,5.67
2018-02-02T14:15:09.670Z,3.47
2018-02-02T14:17:36.071Z,3.40
2018-02-02T14:20:05.306Z,2.93
2018-02-02T14:22:31.686Z,2.97
2018-02-02T14:24:58.845Z,2.93
2018-02-02T14:27:25.971Z,8.87
2018-02-02T14:29:52.370Z,14.17
2018-02-02T14:32:18.769Z,7.03
2018-02-02T14:34:45.875Z,3.00
2018-02-02T14:37:12.295Z,3.87
2018-02-02T14:39:38.669Z,3.07
2018-02-02T14:42:05.844Z,3.70
2018-02-02T14:44:32.210Z,4.43
2018-02-02T14:46:58.598Z,5.63
2018-02-02T14:49:24.993Z,2.83
2018-02-02T14:51:51.366Z,4.60
2018-02-02T14:54:17.758Z,15.60
2018-02-02T14:56:44.130Z,16.90
2018-02-02T14:59:10.517Z,8.93
2018-02-02T15:01:36.922Z,5.97
2018-02-02T15:04:03.351Z,5.63
2018-02-02T15:06:29.734Z,12.07
2018-02-02T15:08:56.874Z,5.23
2018-02-02T15:11:23.986Z,5.63
2018-02-02T15:13:50.359Z,5.30
2018-02-02T15:16:16.735Z,5.23
2018-02-02T15:18:43.109Z,6.60
2018-02-02T15:21:09.539Z,7.40
2018-02-02T15:23:35.972Z,3.20
2018-02-02T15:26:02.401Z,3.20
2018-02-02T15:28:28.875Z,4.00
2018-02-02T15:30:56.028Z,3.90
2018-02-02T15:33:22.418Z,3.90
2018-02-02T15:35:48.802Z,2.93
2018-02-02T15:38:15.189Z,3.37
2018-02-02T15:40:41.603Z,6.00
2018-02-02T15:43:07.987Z,7.47
2018-02-02T15:45:34.415Z,6.00
2018-02-02T15:48:00.766Z,6.97
2018-02-02T15:50:27.163Z,6.37
2018-02-02T15:52:53.605Z,5.93
2018-02-02T15:55:20.778Z,7.60
2018-02-02T15:57:47.164Z,7.30
2018-02-02T16:00:13.580Z,5.67
2018-02-02T16:02:39.996Z,3.83
2018-02-02T16:05:06.375Z,3.47
2018-02-02T16:07:33.490Z,2.80
2018-02-02T16:09:59.869Z,4.13
2018-02-02T16:12:26.303Z,5.20
2018-02-02T16:14:52.702Z,3.47
2018-02-02T16:17:19.090Z,5.23
2018-02-02T16:19:45.466Z,4.47
2018-02-02T16:22:11.902Z,5.97
2018-02-02T16:24:38.304Z,14.20
2018-02-02T16:27:04.798Z,19.80
2018-02-02T16:29:31.216Z,17.67
2018-02-02T16:31:58.487Z,13.87
2018-02-02T16:34:24.919Z,14.63
2018-02-02T16:36:51.367Z,14.17
2018-02-02T16:39:17.797Z,13.40
2018-02-02T16:41:44.209Z,8.43
2018-02-02T16:44:11.363Z,5.97
2018-02-02T16:46:37.813Z,4.83
2018-02-02T16:49:04.228Z,4.97
2018-02-02T16:51:30.692Z,4.80
2018-02-02T16:53:57.159Z,4.60
2018-02-02T16:56:23.650Z,3.90
2018-02-02T16:58:50.073Z,5.20
2018-02-02T17:01:16.493Z,5.33
2018-02-02T17:03:42.886Z,4.73
2018-02-02T17:06:09.295Z,4.57
2018-02-02T17:08:35.732Z,6.20
2018-02-02T17:11:02.161Z,5.30
2018-02-02T17:13:28.599Z,4.30
2018-02-02T17:15:54.966Z,4.23
2018-02-02T17:18:22.086Z,4.13
2018-02-02T17:20:48.474Z,4.43
2018-02-02T17:23:14.879Z,4.50
2018-02-02T17:25:42.006Z,4.30
2018-02-02T17:28:08.407Z,5.60
2018-02-02T17:30:34.794Z,5.57
2018-02-02T17:33:01.962Z,3.90
2018-02-02T17:35:28.438Z,3.63
2018-02-02T17:37:54.831Z,4.77
2018-02-02T17:40:21.228Z,4.60
2018-02-02T17:42:47.632Z,4.63
2018-02-02T17:45:14.024Z,4.73
2018-02-02T17:47:41.134Z,4.47
2018-02-02T17:50:07.524Z,4.63
2018-02-02T17:52:33.923Z,4.53
2018-02-02T17:55:01.036Z,36.83
2018-02-02T17:57:27.437Z,59.53
2018-02-02T17:59:53.852Z,56.50
2018-02-02T18:02:26.269Z,38.90
2018-02-02T18:04:52.740Z,11.87
2018-02-02T18:07:20.010Z,7.53
2018-02-02T18:09:47.139Z,7.00
2018-02-02T18:12:13.509Z,6.60
2018-02-02T18:14:39.890Z,4.80
2018-02-02T18:17:06.327Z,5.20
2018-02-02T18:19:32.736Z,4.77
2018-02-02T18:21:59.143Z,5.13
2018-02-02T18:24:25.644Z,4.80
2018-02-02T18:26:52.775Z,5.70
2018-02-02T18:29:19.933Z,4.70
2018-02-02T18:31:47.084Z,5.93
2018-02-02T18:34:14.255Z,5.30
2018-02-02T18:36:40.678Z,4.70
2018-02-02T18:39:07.067Z,5.80
2018-02-02T18:41:33.534Z,6.30
2018-02-02T18:44:00.686Z,5.73
2018-02-02T18:46:27.784Z,5.90
2018-02-02T18:48:55.280Z,13.33
2018-02-02T18:51:22.408Z,5.23
2018-02-02T18:53:48.795Z,3.90
2018-02-02T18:56:15.215Z,4.90
2018-02-02T18:58:42.332Z,4.43
2018-02-02T19:01:08.710Z,4.83
2018-02-02T19:03:35.098Z,4.17
2018-02-02T19:06:01.531Z,5.10
2018-02-02T19:08:27.928Z,4.00
2018-02-02T19:10:56.576Z,5.63
2018-02-02T19:13:23.697Z,6.20
2018-02-02T19:15:50.310Z,8.97
2018-02-02T19:18:16.677Z,8.10
2018-02-02T19:20:43.054Z,6.53
2018-02-02T19:23:09.569Z,42.93
2018-02-02T19:25:35.939Z,166.53
2018-02-02T19:28:02.330Z,179.97
2018-02-02T19:30:29.455Z,168.00
2018-02-02T19:32:55.827Z,78.47
2018-02-02T19:35:22.227Z,26.70
2018-02-02T19:37:48.643Z,18.20
2018-02-02T19:40:15.075Z,12.73
2018-02-02T19:42:41.703Z,20.67
2018-02-02T19:45:08.186Z,27.73
2018-02-02T19:47:34.587Z,18.50
2018-02-02T19:50:00.969Z,9.40
2018-02-02T19:52:27.404Z,17.17
2018-02-02T19:54:53.850Z,13.90
2018-02-02T19:57:20.287Z,11.27
2018-02-02T19:59:46.669Z,9.97
2018-02-02T20:02:14.655Z,7.53
2018-02-02T20:04:41.042Z,10.20
2018-02-02T20:07:07.434Z,6.53
2018-02-02T20:09:33.907Z,6.80
2018-02-02T20:12:00.251Z,5.37
2018-02-02T20:14:27.398Z,6.53
2018-02-02T20:16:55.525Z,6.60
2018-02-02T20:19:21.891Z,5.90
2018-02-02T20:21:48.297Z,7.20
2018-02-02T20:24:14.690Z,6.90
2018-02-02T20:26:41.066Z,8.07
2018-02-02T20:29:07.496Z,6.85
2018-02-02T20:31:33.900Z,6.90
2018-02-02T20:34:00.303Z,6.93
2018-02-02T20:36:27.439Z,6.70
2018-02-02T20:38:54.603Z,7.32
2018-02-02T20:41:21.738Z,8.10
2018-02-02T20:43:48.870Z,7.12
2018-02-02T20:46:15.375Z,7.35
2018-02-02T20:48:41.772Z,7.75
2018-02-02T20:51:08.190Z,9.60
2018-02-02T20:53:35.302Z,7.90
2018-02-02T20:56:01.688Z,7.07
2018-02-02T20:58:28.122Z,5.37
2018-02-02T21:00:54.597Z,8.32
2018-02-02T21:03:20.976Z,11.48
2018-02-02T21:05:48.115Z,21.55
2018-02-02T21:08:15.278Z,23.52
2018-02-02T21:10:41.701Z,20.60
2018-02-02T21:13:08.826Z,25.90
2018-02-02T21:15:35.234Z,25.75
2018-02-02T21:18:01.823Z,18.25
2018-02-02T21:20:28.958Z,17.35
2018-02-02T21:22:55.345Z,14.00
2018-02-02T21:25:21.741Z,13.82
2018-02-02T21:27:48.874Z,15.23
2018-02-02T21:30:15.309Z,7.80
2018-02-02T21:32:42.434Z,7.25
2018-02-02T21:35:08.827Z,7.65
2018-02-02T21:37:35.231Z,8.85
2018-02-02T21:40:02.394Z,9.57
2018-02-02T21:42:28.831Z,10.00
2018-02-02T21:44:55.232Z,8.70
2018-02-02T21:47:21.634Z,9.25
2018-02-02T21:49:48.634Z,9.23
2018-02-02T21:52:15.066Z,8.52
2018-02-02T21:54:42.257Z,11.07
2018-02-02T21:57:08.660Z,10.95
2018-02-02T21:59:35.025Z,9.77
2018-02-02T22:02:01.390Z,8.15
2018-02-02T22:04:27.775Z,8.25
2018-02-02T22:06:54.170Z,9.20
2018-02-02T22:09:20.652Z,8.15
2018-02-02T22:11:47.076Z,9.77
2018-02-02T22:14:13.477Z,9.40
2018-02-02T22:16:39.873Z,12.50
2018-02-02T22:19:06.348Z,8.95
2018-02-02T22:21:32.789Z,8.25
2018-02-02T22:23:59.989Z,7.12
2018-02-02T22:26:26.357Z,8.65
2018-02-02T22:28:53.533Z,9.60
2018-02-02T22:31:19.919Z,10.35
2018-02-02T22:33:46.361Z,10.10
2018-02-02T22:36:13.471Z,9.95
2018-02-02T22:38:39.842Z,10.90
2018-02-02T22:41:06.968Z,23.95
2018-02-02T22:43:33.382Z,47.42
2018-02-02T22:45:59.770Z,15.48
2018-02-02T22:48:26.125Z,18.17
2018-02-02T22:50:52.510Z,12.23
2018-02-02T22:53:18.934Z,10.88
2018-02-02T22:55:45.374Z,11.43
2018-02-02T22:58:12.571Z,11.05
2018-02-02T23:00:38.996Z,11.68
2018-02-02T23:03:05.399Z,13.48
2018-02-02T23:05:33.102Z,12.77
2018-02-02T23:07:59.542Z,12.95
2018-02-02T23:10:25.967Z,15.55
2018-02-02T23:12:52.341Z,12.82
2018-02-02T23:15:18.834Z,16.77
2018-02-02T23:17:45.215Z,18.85
2018-02-02T23:20:11.618Z,13.70
2018-02-02T23:22:38.222Z,12.68
2018-02-02T23:25:04.593Z,11.95
2018-02-02T23:27:30.979Z,12.50
2018-02-02T23:29:57.390Z,13.07
2018-02-02T23:32:24.530Z,13.10
2018-02-02T23:34:51.703Z,13.50
2018-02-02T23:37:18.138Z,11.12
2018-02-02T23:39:44.526Z,14.40
2018-02-02T23:42:10.925Z,16.08
2018-02-02T23:44:37.333Z,15.00
2018-02-02T23:47:04.458Z,15.00
2018-02-02T23:49:30.848Z,14.95
2018-02-02T23:51:57.330Z,13.07
2018-02-02T23:54:24.468Z,11.95
2018-02-02T23:56:51.621Z,12.40
2018-02-02T23:59:18.026Z,11.23
